Time;durP1;ratioP1;P1;durP2;ratioP2;P2;SDS_P1;SDS_P2;PMS_P1;PMS_P2;Temp;Humidity;BMP_temperature;BMP_pressure;BME280_temperature;BME280_humidity;BME280_pressure;Samples;Min_cycle;Max_cycle;Signal;HPM_P1;HPM_P2
2022/09/29 00:01:41;;;;;;;;;3.00;3.00;;;;;16.03;65.75;35794.41;4992841;28;45330;-78
2022/09/29 00:04:07;;;;;;;;;1.00;1.00;;;;;16.09;66.09;37033.84;4990862;28;45405;-78
2022/09/29 00:06:32;;;;;;;;;3.67;3.67;;;;;16.07;65.75;35540.38;4992489;28;46897;-78
2022/09/29 00:08:57;;;;;;;;;4.00;2.67;;;;;15.99;65.62;34102.41;4991116;28;45369;-78
2022/09/29 00:11:23;;;;;;;;;3.00;3.00;;;;;16.07;65.73;32724.34;4991285;28;45490;-78
2022/09/29 00:13:48;;;;;;;;;2.33;2.33;;;;;16.04;65.72;35901.19;4990942;28;47338;-78
2022/09/29 00:16:14;;;;;;;;;4.33;2.33;;;;;16.04;65.62;33412.78;4971829;28;45411;-78
2022/09/29 00:18:40;;;;;;;;;3.00;2.33;;;;;16.04;65.96;38258.47;4986540;28;46006;-78
2022/09/29 00:21:18;;;;;;;;;3.00;3.00;;;;;15.93;65.79;31810.06;4995341;28;45981;-78
2022/09/29 00:23:43;;;;;;;;;3.00;2.67;;;;;16.01;65.99;36314.56;4980878;28;46427;-78
2022/09/29 00:26:16;;;;;;;;;4.00;2.67;;;;;16.00;65.65;35036.41;4995173;28;45378;-78
2022/09/29 00:28:47;;;;;;;;;5.00;3.00;;;;;16.07;65.58;32073.91;4995415;28;45433;-77
2022/09/29 00:31:13;;;;;;;;;3.00;2.00;;;;;15.98;65.68;28313.31;4994445;28;45345;-79
2022/09/29 00:33:39;;;;;;;;;5.00;1.67;;;;;16.00;65.50;23921.53;4996295;28;45401;-78
2022/09/29 00:36:11;;;;;;;;;0.67;0.67;;;;;15.99;65.37;18637.63;4993092;27;45485;-79
2022/09/29 00:38:37;;;;;;;;;1.33;1.33;;;;;15.98;64.87;19669.47;4995125;28;45387;-78
2022/09/29 00:41:04;;;;;;;;;2.00;2.00;;;;;15.94;65.33;24459.22;4994114;28;45505;-78
2022/09/29 00:43:57;;;;;;;;;2.00;2.00;;;;;15.97;65.55;27096.28;4995658;28;46137;-78
2022/09/29 00:46:35;;;;;;;;;2.00;2.00;;;;;16.01;65.02;17645.47;4994404;28;45333;-78
2022/09/29 00:49:12;;;;;;;;;2.67;1.67;;;;;16.01;64.98;14129.84;4981804;28;45368;-73
2022/09/29 00:51:42;;;;;;;;;1.33;1.33;;;;;16.01;65.09;16361.06;4995170;28;45576;-73
2022/09/29 00:54:09;;;;;;;;;0.67;0.67;;;;;16.00;64.98;19338.53;4994127;28;46157;-73
2022/09/29 00:56:39;;;;;;;;;2.33;1.00;;;;;16.01;64.90;16658.31;4993906;28;45359;-73
2022/09/29 00:59:08;;;;;;;;;1.00;1.00;;;;;15.96;65.14;17896.66;4975816;28;45530;-73
2022/09/29 01:01:33;;;;;;;;;1.00;1.00;;;;;15.97;64.59;13607.81;4995186;28;45568;-73
2022/09/29 01:04:03;;;;;;;;;1.00;1.00;;;;;15.85;64.75;10994.56;4993614;27;46221;-73
2022/09/29 01:06:37;;;;;;;;;0.67;0.67;;;;;15.90;64.92;11324.09;4994674;28;45534;-73
2022/09/29 01:09:09;;;;;;;;;0.00;0.00;;;;;15.84;64.53;11577.69;4980903;28;45310;-73
2022/09/29 01:11:34;;;;;;;;;0.33;0.00;;;;;15.83;64.54;4976.63;4996289;28;45354;-73
2022/09/29 01:14:03;;;;;;;;;1.00;0.67;;;;;15.89;64.57;2829.13;4995490;28;46324;-73
2022/09/29 01:16:34;;;;;;;;;0.67;0.67;;;;;15.79;64.37;6665.84;4990122;28;45476;-73
2022/09/29 01:19:04;;;;;;;;;2.00;0.67;;;;;15.87;64.52;9560.59;4976219;28;45393;-72
2022/09/29 01:21:55;;;;;;;;;1.00;1.00;;;;;15.87;64.82;10214.69;4967097;28;45282;-72
2022/09/29 01:24:48;;;;;;;;;0.33;0.33;;;;;15.90;64.64;9382.50;4993915;28;45372;-72
2022/09/29 01:27:22;;;;;;;;;1.67;1.67;;;;;15.95;64.43;8758.38;4991289;28;45374;-72
2022/09/29 01:30:02;;;;;;;;;1.67;1.67;;;;;15.94;64.14;5166.88;4993963;28;45468;-73
2022/09/29 01:32:39;;;;;;;;;1.00;1.00;;;;;15.93;64.26;3438.00;4994887;28;45404;-73
2022/09/29 01:35:18;;;;;;;;;1.00;1.00;;;;;15.97;64.50;7293.50;4992401;28;47210;-72
2022/09/29 01:37:54;;;;;;;;;1.00;1.00;;;;;15.86;64.45;12663.56;4992547;28;45813;-72
2022/09/29 01:40:34;;;;;;;;;0.67;0.67;;;;;15.90;64.71;17460.25;4994247;28;45459;-73
2022/09/29 01:43:17;;;;;;;;;1.67;0.33;;;;;15.90;65.01;17218.09;4992892;28;45424;-73
2022/09/29 01:46:19;;;;;;;;;1.00;1.00;;;;;15.88;64.34;15073.00;4990257;28;45415;-72
2022/09/29 01:48:49;;;;;;;;;0.67;0.67;;;;;15.89;65.04;18215.41;4994874;28;45553;-77
2022/09/29 01:51:21;;;;;;;;;1.00;1.00;;;;;15.86;65.08;19422.69;4976384;28;45398;-77
2022/09/29 01:53:50;;;;;;;;;0.67;0.67;;;;;15.87;65.47;24445.47;4995538;27;45410;-77
2022/09/29 01:56:24;;;;;;;;;1.67;1.67;;;;;15.85;65.31;23168.63;4994509;28;45413;-77
2022/09/29 01:58:58;;;;;;;;;1.00;1.00;;;;;15.74;65.10;21791.31;4993236;28;45575;-77
2022/09/29 02:01:28;;;;;;;;;2.33;1.33;;;;;15.78;65.08;22499.28;4990828;28;45631;-77
2022/09/29 02:04:01;;;;;;;;;1.00;1.00;;;;;15.86;65.47;21669.75;4994246;28;45565;-77
2022/09/29 02:06:35;;;;;;;;;1.67;1.67;;;;;15.82;65.14;24267.00;4981220;28;47118;-77
2022/09/29 02:09:03;;;;;;;;;1.00;0.33;;;;;15.89;65.15;23703.09;4992933;28;45510;-77
2022/09/29 02:11:34;;;;;;;;;2.00;0.67;;;;;15.80;65.34;25054.47;4974258;28;45538;-77
2022/09/29 02:14:23;;;;;;;;;1.00;1.00;;;;;15.90;65.27;20996.88;4993455;28;45522;-77
2022/09/29 02:17:03;;;;;;;;;1.67;1.67;;;;;15.90;65.17;23814.25;4975354;28;47187;-77
2022/09/29 02:19:32;;;;;;;;;2.00;1.00;;;;;15.89;65.26;23694.97;4959758;28;45528;-78
2022/09/29 02:21:58;;;;;;;;;1.00;1.00;;;;;15.90;65.46;25261.97;4994058;28;45356;-77
2022/09/29 02:24:24;;;;;;;;;1.67;1.00;;;;;15.90;65.21;22699.19;4977416;28;45583;-77
2022/09/29 02:26:50;;;;;;;;;2.00;2.00;;;;;15.93;65.02;20505.22;4992289;28;46106;-77
2022/09/29 02:29:16;;;;;;;;;3.67;1.67;;;;;15.86;64.93;18717.19;4992730;28;45382;-77
2022/09/29 02:31:43;;;;;;;;;1.00;1.00;;;;;15.79;64.96;18356.84;4993881;28;45369;-77
2022/09/29 02:34:13;;;;;;;;;1.67;1.67;;;;;15.90;64.88;19471.59;4993964;28;45340;-77
2022/09/29 02:36:48;;;;;;;;;1.00;1.00;;;;;15.88;65.13;18757.41;4981347;28;46394;-77
2022/09/29 02:39:44;;;;;;;;;1.67;1.67;;;;;15.82;65.19;17628.78;4992950;28;45405;-77
2022/09/29 02:42:20;;;;;;;;;3.67;1.00;;;;;15.91;64.83;13406.44;4994451;28;45492;-78
2022/09/29 02:44:51;;;;;;;;;2.67;0.67;;;;;15.91;64.59;14942.38;4994858;28;45452;-77
2022/09/29 02:47:38;;;;;;;;;2.33;2.33;;;;;15.91;64.83;13937.50;4994389;28;45570;-78
2022/09/29 02:50:29;;;;;;;;;3.00;2.00;;;;;15.93;65.36;16995.38;4994543;28;45313;-77
2022/09/29 02:53:08;;;;;;;;;2.33;2.33;;;;;15.92;64.79;13919.53;4994921;28;45368;-77
2022/09/29 02:55:48;;;;;;;;;3.00;1.67;;;;;15.68;65.34;17621.19;4994966;28;45412;-77
2022/09/29 02:58:25;;;;;;;;;1.00;1.00;;;;;15.89;65.04;13576.69;4993098;28;46083;-77
2022/09/29 03:00:52;;;;;;;;;1.67;1.67;;;;;15.74;64.49;11730.28;4993316;28;45363;-78
2022/09/29 03:03:18;;;;;;;;;1.00;1.00;;;;;15.89;64.69;11907.44;4983377;28;45392;-78
2022/09/29 03:05:43;;;;;;;;;2.00;2.00;;;;;15.86;64.81;11922.47;4994836;28;45397;-77
2022/09/29 03:08:09;;;;;;;;;2.00;2.00;;;;;15.81;64.77;16199.56;4993003;28;45956;-77
2022/09/29 03:10:35;;;;;;;;;2.67;1.33;;;;;15.89;65.52;18994.56;4992298;28;45750;-77
2022/09/29 03:13:00;;;;;;;;;0.67;0.67;;;;;15.86;65.01;22697.50;4974293;28;45531;-77
2022/09/29 03:15:26;;;;;;;;;1.00;1.00;;;;;15.90;65.43;25618.03;4992143;28;45401;-77
2022/09/29 03:17:55;;;;;;;;;2.00;2.00;;;;;15.85;65.00;19801.72;4993315;28;45794;-77
2022/09/29 03:20:20;;;;;;;;;1.00;1.00;;;;;15.79;65.62;26219.44;4981007;28;45647;-77
2022/09/29 03:22:46;;;;;;;;;2.00;2.00;;;;;15.89;65.11;21328.44;4993537;28;45475;-77
2022/09/29 03:25:13;;;;;;;;;2.00;2.00;;;;;15.76;65.66;24108.78;4993181;28;45504;-77
2022/09/29 03:27:38;;;;;;;;;1.00;1.00;;;;;15.87;65.26;22840.22;4990653;28;45597;-78
2022/09/29 03:30:04;;;;;;;;;0.67;0.67;;;;;15.82;65.46;24562.31;4992213;28;45415;-78
2022/09/29 03:32:30;;;;;;;;;3.33;2.00;;;;;15.88;65.38;26735.59;4993403;28;45393;-77
2022/09/29 03:34:55;;;;;;;;;1.67;1.67;;;;;15.80;65.60;28528.56;4976371;28;45290;-78
2022/09/29 03:37:20;;;;;;;;;2.33;1.67;;;;;15.87;65.81;30884.75;4975231;28;47914;-78
2022/09/29 03:39:46;;;;;;;;;1.67;1.00;;;;;15.88;65.66;28659.44;4992855;28;45501;-77
2022/09/29 03:42:11;;;;;;;;;0.67;0.67;;;;;15.88;65.52;28105.16;4992057;28;45429;-77
2022/09/29 03:44:36;;;;;;;;;2.33;1.00;;;;;15.89;65.57;26390.47;4991772;28;45543;-77
2022/09/29 03:47:02;;;;;;;;;2.00;2.00;;;;;15.87;65.41;26867.00;4974947;27;46221;-77
2022/09/29 03:49:27;;;;;;;;;1.67;1.67;;;;;15.83;65.86;28614.59;4975130;28;45586;-77
2022/09/29 03:51:53;;;;;;;;;2.00;2.00;;;;;15.87;65.58;28782.97;4992522;28;45464;-78
2022/09/29 03:54:18;;;;;;;;;1.33;1.33;;;;;15.87;65.97;31653.38;4996524;28;45407;-77
2022/09/29 03:56:43;;;;;;;;;2.67;0.67;;;;;15.87;65.74;35356.06;4996016;27;45868;-77
2022/09/29 03:59:10;;;;;;;;;3.00;2.00;;;;;15.88;66.00;33622.22;4995466;28;45508;-77
2022/09/29 04:01:37;;;;;;;;;2.33;2.33;;;;;15.88;65.88;30956.34;4993507;28;45675;-78
2022/09/29 04:04:02;;;;;;;;;3.33;3.00;;;;;15.87;65.77;31869.72;4994828;28;45364;-78
2022/09/29 04:06:28;;;;;;;;;0.67;0.67;;;;;15.74;65.88;26515.28;4972505;28;46310;-78
2022/09/29 04:08:53;;;;;;;;;1.00;1.00;;;;;15.83;65.59;31572.13;4978340;28;45510;-78
2022/09/29 04:11:19;;;;;;;;;2.67;0.67;;;;;15.83;65.96;31133.69;4995046;28;45467;-77
2022/09/29 04:13:44;;;;;;;;;2.67;2.67;;;;;15.74;66.02;34716.06;4994715;28;45504;-77
2022/09/29 04:16:09;;;;;;;;;4.67;1.67;;;;;15.83;66.26;34330.78;4994669;28;45412;-77
2022/09/29 04:18:35;;;;;;;;;2.00;2.00;;;;;15.83;66.27;37043.41;4995405;28;45472;-77
2022/09/29 04:21:07;;;;;;;;;6.67;3.67;;;;;15.83;66.22;36628.16;4993789;28;45500;-77
2022/09/29 04:23:33;;;;;;;;;2.33;1.33;;;;;15.85;66.18;34503.53;4994523;28;45632;-77
2022/09/29 04:26:02;;;;;;;;;1.33;1.33;;;;;15.86;66.17;35461.22;4994050;28;45347;-77
2022/09/29 04:28:30;;;;;;;;;3.00;1.67;;;;;15.85;66.17;37817.19;4994771;28;45669;-77
2022/09/29 04:30:56;;;;;;;;;2.00;1.00;;;;;15.86;66.44;37910.47;4992102;28;45625;-77
2022/09/29 04:33:21;;;;;;;;;2.00;2.00;;;;;15.85;66.20;33607.19;4994815;28;45436;-77
2022/09/29 04:35:46;;;;;;;;;1.00;1.00;;;;;15.87;66.08;33153.81;4994308;28;47069;-77
2022/09/29 04:38:12;;;;;;;;;1.67;1.67;;;;;15.87;66.15;39919.50;4995180;28;45312;-78
2022/09/29 04:40:37;;;;;;;;;1.67;1.33;;;;;15.85;66.26;39153.50;4992863;28;46616;-77
2022/09/29 04:43:03;;;;;;;;;1.67;1.67;;;;;15.88;66.44;38263.41;4995322;28;45399;-77
2022/09/29 04:45:29;;;;;;;;;0.67;0.67;;;;;15.89;65.95;31533.00;4993093;28;47183;-78
2022/09/29 04:47:55;;;;;;;;;0.00;0.00;;;;;15.86;65.92;32038.22;4980764;28;45458;-78
2022/09/29 04:50:21;;;;;;;;;1.67;1.67;;;;;15.77;65.65;30507.09;5008780;28;45543;-77
2022/09/29 04:52:47;;;;;;;;;1.67;1.67;;;;;15.81;65.82;30524.88;4995999;28;45396;-77
2022/09/29 04:55:12;;;;;;;;;2.00;2.00;;;;;15.75;65.88;32885.38;4984161;28;46161;-77
2022/09/29 04:57:41;;;;;;;;;2.00;2.00;;;;;15.79;66.17;37678.22;4994601;28;46069;-77
2022/09/29 05:00:07;;;;;;;;;1.33;1.33;;;;;15.67;66.41;37442.69;4994162;28;45543;-77
2022/09/29 05:02:34;;;;;;;;;3.33;1.33;;;;;15.74;66.25;37987.34;4994486;28;45408;-77
2022/09/29 05:04:59;;;;;;;;;3.67;1.67;;;;;15.73;66.03;36893.97;4985977;28;46242;-77
2022/09/29 05:07:25;;;;;;;;;3.33;3.00;;;;;15.67;66.40;39154.53;4993562;28;45326;-77
2022/09/29 05:09:50;;;;;;;;;2.00;2.00;;;;;15.70;66.69;39373.59;4981657;28;45614;-77
2022/09/29 05:12:16;;;;;;;;;2.33;2.33;;;;;15.70;66.39;38899.63;4985152;28;45553;-77
2022/09/29 05:14:41;;;;;;;;;2.00;2.00;;;;;15.68;66.73;40403.91;4990411;28;47028;-78
2022/09/29 05:17:06;;;;;;;;;1.67;1.67;;;;;15.67;66.54;41186.69;4992047;28;45432;-80
2022/09/29 05:19:32;;;;;;;;;4.33;1.67;;;;;15.60;66.89;42214.75;4995453;28;45789;-80
2022/09/29 05:21:58;;;;;;;;;3.00;3.00;;;;;15.66;66.70;43497.97;4993413;28;45477;-76
2022/09/29 05:24:24;;;;;;;;;4.00;3.67;;;;;15.62;66.96;43317.47;4980326;28;47328;-75
2022/09/29 05:26:50;;;;;;;;;5.67;4.67;;;;;15.68;66.67;42760.56;4982166;28;45516;-75
2022/09/29 05:29:15;;;;;;;;;9.67;6.33;;;;;15.67;66.52;41517.59;4992828;28;45475;-74
2022/09/29 05:31:41;;;;;;;;;12.00;10.33;;;;;15.57;66.70;43032.94;4991165;28;45576;-75
2022/09/29 05:34:07;;;;;;;;;3.00;3.00;;;;;15.68;67.00;42961.84;4990794;28;45305;-75
2022/09/29 05:36:32;;;;;;;;;5.00;5.00;;;;;15.67;66.65;39622.88;4991953;28;45534;-75
2022/09/29 05:38:58;;;;;;;;;9.33;9.33;;;;;15.68;66.66;41311.84;4989685;28;45577;-75
2022/09/29 05:41:23;;;;;;;;;4.33;4.00;;;;;15.66;67.02;42965.63;4978761;28;46535;-75
2022/09/29 05:43:50;;;;;;;;;2.33;2.33;;;;;15.60;66.85;42505.63;4986997;28;46108;-75
2022/09/29 05:46:18;;;;;;;;;7.33;5.33;;;;;15.66;67.10;42801.06;4988187;28;45532;-74
2022/09/29 05:48:45;;;;;;;;;3.67;3.67;;;;;15.67;66.60;40818.75;4989747;28;45939;-73
2022/09/29 05:51:14;;;;;;;;;3.00;3.00;;;;;15.60;66.39;42164.06;4986903;28;45666;-75
2022/09/29 05:53:40;;;;;;;;;2.67;2.67;;;;;15.65;66.62;41537.69;4992673;28;45624;-77
2022/09/29 05:56:11;;;;;;;;;3.33;2.33;;;;;15.62;66.77;41707.91;4986375;28;45480;-73
2022/09/29 05:58:38;;;;;;;;;4.33;4.33;;;;;15.59;66.87;42645.59;4980001;28;45450;-73
2022/09/29 06:01:12;;;;;;;;;10.67;10.67;;;;;15.59;67.03;43828.97;4988077;28;46003;-73
2022/09/29 06:03:38;;;;;;;;;10.00;10.00;;;;;15.61;67.18;44328.91;4986425;28;46536;-73
2022/09/29 06:06:21;;;;;;;;;17.33;14.33;;;;;15.61;66.86;44000.41;4983835;28;45293;-73
2022/09/29 06:08:47;;;;;;;;;28.00;24.00;;;;;15.61;67.27;44588.50;5017194;28;45343;-73
2022/09/29 06:11:16;;;;;;;;;23.33;21.67;;;;;15.59;67.22;44224.03;4993765;28;45302;-73
2022/09/29 06:13:47;;;;;;;;;14.33;14.33;;;;;15.60;67.30;45578.66;4987854;28;45329;-73
2022/09/29 06:16:14;;;;;;;;;13.67;11.67;;;;;15.59;67.17;46804.94;4980538;28;45982;-73
2022/09/29 06:18:40;;;;;;;;;21.67;19.33;;;;;15.59;67.51;46685.25;4992126;28;45837;-72
2022/09/29 06:21:11;;;;;;;;;15.00;13.67;;;;;15.61;67.50;47236.03;4990343;28;45520;-73
2022/09/29 06:23:37;;;;;;;;;7.33;6.33;;;;;15.50;67.04;44571.91;4991173;28;46159;-73
2022/09/29 06:26:08;;;;;;;;;6.00;6.00;;;;;15.65;67.42;43096.91;4990498;28;45396;-72
2022/09/29 06:28:34;;;;;;;;;6.00;5.67;;;;;15.55;67.35;44310.97;4993953;27;45421;-72
2022/09/29 06:31:02;;;;;;;;;8.00;6.00;;;;;15.60;67.29;43323.88;4993359;28;45539;-72
2022/09/29 06:33:27;;;;;;;;;6.00;6.00;;;;;15.59;67.01;44571.06;4980917;28;45425;-72
2022/09/29 06:38:37;;;;;;;;;5.33;5.33;;;;;15.56;67.33;44030.97;4992289;28;45508;-72
2022/09/29 06:41:02;;;;;;;;;7.00;5.67;;;;;15.60;67.41;47940.00;4991051;28;45519;-73
2022/09/29 06:43:27;;;;;;;;;8.00;5.67;;;;;15.60;67.69;46391.88;4993585;28;45389;-73
2022/09/29 06:45:53;;;;;;;;;6.33;4.67;;;;;15.60;67.75;47121.22;4992659;28;45852;-73
2022/09/29 06:48:18;;;;;;;;;7.00;7.00;;;;;15.62;67.49;45100.28;4968386;28;45571;-71
2022/09/29 06:50:44;;;;;;;;;8.33;7.33;;;;;15.66;67.07;41932.91;4972331;28;45405;-73
2022/09/29 06:53:09;;;;;;;;;2.67;2.33;;;;;15.62;67.02;42811.66;4975163;28;45496;-72
2022/09/29 06:55:34;;;;;;;;;7.67;5.00;;;;;15.62;67.15;43844.94;4993714;28;45327;-72
2022/09/29 06:57:59;;;;;;;;;3.67;3.67;;;;;15.53;67.48;46516.41;4993589;28;45592;-72
2022/09/29 07:00:25;;;;;;;;;7.33;7.33;;;;;15.62;67.61;45672.63;4991600;28;45363;-72
2022/09/29 07:02:50;;;;;;;;;4.67;4.00;;;;;15.60;67.47;45146.38;4980753;28;45968;-72
2022/09/29 07:05:15;;;;;;;;;3.33;2.67;;;;;15.59;67.27;44644.84;4978955;28;45551;-72
2022/09/29 07:07:41;;;;;;;;;9.67;8.33;;;;;15.60;67.80;47015.16;4989957;28;45370;-72
2022/09/29 07:10:08;;;;;;;;;4.33;3.00;;;;;15.62;67.48;46960.75;4994769;28;45414;-72
2022/09/29 07:12:33;;;;;;;;;4.00;4.00;;;;;15.59;67.34;42398.94;4992902;28;45915;-72
2022/09/29 07:14:58;;;;;;;;;5.33;4.00;;;;;15.53;67.46;46849.94;4991872;28;45468;-72
2022/09/29 07:17:24;;;;;;;;;7.33;7.33;;;;;15.69;67.39;44991.91;4975557;28;45607;-73
2022/09/29 07:19:49;;;;;;;;;6.00;5.33;;;;;15.68;67.56;44760.16;4991878;28;45494;-72
2022/09/29 07:22:14;;;;;;;;;5.33;5.00;;;;;15.76;67.88;46229.59;4975415;28;46070;-72
2022/09/29 07:24:42;;;;;;;;;5.33;5.33;;;;;15.86;67.27;39479.41;4992973;28;45330;-72
2022/09/29 07:27:08;;;;;;;;;4.00;3.33;;;;;15.93;67.02;38444.13;4992834;28;47043;-72
2022/09/29 07:29:34;;;;;;;;;5.00;3.67;;;;;15.98;66.75;30341.50;4977283;28;45606;-72
2022/09/29 07:31:59;;;;;;;;;3.00;3.00;;;;;16.04;66.55;30637.75;4958356;28;47339;-72
2022/09/29 07:34:24;;;;;;;;;5.67;5.67;;;;;16.11;66.25;18660.00;4959814;28;45410;-71
2022/09/29 07:36:50;;;;;;;;;4.00;4.00;;;;;16.14;66.06;14062.22;4988363;28;45544;-72
2022/09/29 07:39:16;;;;;;;;;4.67;4.67;;;;;16.19;66.47;22948.66;4995692;28;45456;-71
2022/09/29 07:41:41;;;;;;;;;6.33;5.33;;;;;16.27;65.76;14342.22;4995189;28;46259;-71
2022/09/29 07:44:07;;;;;;;;;7.00;5.00;;;;;16.31;66.06;12727.78;4978553;28;45404;-71
2022/09/29 07:46:32;;;;;;;;;5.33;5.00;;;;;16.39;65.77;1183.66;4979258;28;45650;-71
2022/09/29 07:48:57;;;;;;;;;4.00;4.00;;;;;16.44;65.31;226.63;4995262;28;45596;-71
2022/09/29 07:51:23;;;;;;;;;5.00;5.00;;;;;16.51;65.64;3362.75;4994353;28;46131;-73
2022/09/29 07:53:48;;;;;;;;;6.67;6.33;;;;;16.45;65.68;5659.63;4988842;28;45427;-72
2022/09/29 07:56:17;;;;;;;;;3.00;2.00;;;;;16.54;64.52;-12484.59;4973493;28;45505;-72
2022/09/29 07:58:44;;;;;;;;;4.67;4.67;;;;;16.48;64.98;-12894.19;4989894;28;45417;-72
2022/09/29 08:01:12;;;;;;;;;8.33;7.00;;;;;16.50;64.52;-15228.13;4992937;28;46396;-72
2022/09/29 08:03:39;;;;;;;;;3.67;3.67;;;;;16.53;64.88;-7896.03;4972613;28;45519;-72
2022/09/29 08:06:06;;;;;;;;;6.67;5.67;;;;;16.58;65.06;2486.75;4973531;28;45405;-72
2022/09/29 08:08:35;;;;;;;;;3.00;3.00;;;;;16.63;64.92;-74.06;4996243;28;45417;-72
2022/09/29 08:11:09;;;;;;;;;6.67;6.67;;;;;16.66;64.49;-8088.13;4996203;28;47282;-72
2022/09/29 08:13:36;;;;;;;;;6.67;4.00;;;;;16.74;64.39;-14694.25;4984674;28;45431;-71
2022/09/29 08:16:03;;;;;;;;;7.33;4.33;;;;;16.82;64.22;-18565.34;4995616;28;45408;-71
2022/09/29 08:18:30;;;;;;;;;5.33;5.33;;;;;16.81;63.95;-19520.75;4997046;28;45399;-71
2022/09/29 08:20:56;;;;;;;;;6.00;4.00;;;;;16.88;63.58;-19598.47;4996428;28;45309;-72
2022/09/29 08:23:22;;;;;;;;;9.67;5.33;;;;;16.83;63.89;-19367.25;4995002;28;45422;-73
2022/09/29 08:25:58;;;;;;;;;4.00;4.00;;;;;16.98;63.77;-19663.03;4994928;28;45436;-73
2022/09/29 08:28:23;;;;;;;;;3.33;3.33;;;;;17.01;63.57;-19663.81;4976821;28;46029;-73
2022/09/29 08:30:49;;;;;;;;;7.00;5.00;;;;;17.12;63.15;-19666.50;4992511;28;46154;-73
2022/09/29 08:33:15;;;;;;;;;6.00;5.33;;;;;17.10;62.27;-19666.09;4993286;28;45562;-73
2022/09/29 08:35:40;;;;;;;;;6.33;6.33;;;;;17.06;62.22;-19665.16;4995858;28;45444;-75
2022/09/29 08:38:06;;;;;;;;;5.00;5.00;;;;;16.78;62.11;-19657.78;4994337;28;45665;-74
2022/09/29 08:40:32;;;;;;;;;5.33;5.33;;;;;16.53;62.46;-19651.09;4990967;28;47057;-81
2022/09/29 08:43:14;;;;;;;;;4.33;4.33;;;;;16.57;62.61;-19652.16;4995249;28;45417;-82
2022/09/29 08:45:46;;;;;;;;;6.67;6.67;;;;;16.67;62.27;-19655.00;4996182;28;45893;-81
2022/09/29 08:48:24;;;;;;;;;6.33;6.33;;;;;16.73;62.83;-19656.31;4987002;28;45279;-81
2022/09/29 08:51:02;;;;;;;;;6.33;5.67;;;;;16.85;62.56;-19659.69;4958048;28;45933;-72
2022/09/29 08:53:32;;;;;;;;;8.00;5.67;;;;;16.95;62.51;-19662.09;4980391;28;45283;-73
2022/09/29 08:56:08;;;;;;;;;7.67;7.67;;;;;17.24;62.53;-19669.84;4993115;28;45420;-73
2022/09/29 08:58:36;;;;;;;;;6.67;6.00;;;;;17.68;61.85;-19681.34;4989198;28;45443;-73
2022/09/29 09:01:17;;;;;;;;;7.33;6.67;;;;;18.01;61.28;-19689.78;4991844;28;46162;-73
2022/09/29 09:04:01;;;;;;;;;8.00;5.67;;;;;18.32;60.29;-19697.94;4970935;28;45603;-72
2022/09/29 09:06:41;;;;;;;;;4.33;4.00;;;;;18.40;59.77;-19700.09;4991078;28;45495;-74
2022/09/29 09:09:35;;;;;;;;;6.67;5.33;;;;;18.48;59.69;-19702.09;4990741;28;45503;-73
2022/09/29 09:12:18;;;;;;;;;7.33;6.00;;;;;18.53;59.16;-19703.41;4992388;28;45706;-72
2022/09/29 09:15:13;;;;;;;;;5.00;4.00;;;;;18.54;58.59;-19703.69;4988319;28;45537;-73
2022/09/29 09:17:48;;;;;;;;;4.00;4.00;;;;;18.51;58.10;-19703.03;4991857;28;45504;-74
2022/09/29 09:20:34;;;;;;;;;3.00;3.00;;;;;18.41;57.41;-19700.34;4996174;28;46455;-74
2022/09/29 09:23:21;;;;;;;;;3.00;3.00;;;;;18.40;57.68;-19699.94;4975365;28;47448;-74
2022/09/29 09:25:53;;;;;;;;;3.00;2.00;;;;;18.37;58.07;-19699.16;4996546;28;47076;-74
2022/09/29 09:28:28;;;;;;;;;2.00;2.00;;;;;18.52;57.38;-19703.16;4991835;28;45593;-74
2022/09/29 09:30:56;;;;;;;;;1.33;1.00;;;;;18.62;56.28;-19705.69;4988078;28;45496;-74
2022/09/29 09:33:43;;;;;;;;;2.00;2.00;;;;;18.62;56.37;-19705.81;4996222;28;45457;-73
2022/09/29 09:36:17;;;;;;;;;1.00;1.00;;;;;18.95;54.76;-19714.50;4976733;28;45490;-73
2022/09/29 09:39:08;;;;;;;;;2.00;1.00;;;;;19.15;54.98;-19719.72;4992719;28;45463;-73
2022/09/29 09:41:36;;;;;;;;;3.33;3.33;;;;;19.38;55.15;-19725.59;4987033;28;45483;-73
2022/09/29 09:44:14;;;;;;;;;4.00;2.00;;;;;19.49;55.25;-19728.41;4992467;28;46306;-74
2022/09/29 09:46:58;;;;;;;;;1.00;1.00;;;;;19.76;54.97;-19735.47;4989790;28;45355;-73
2022/09/29 09:49:23;;;;;;;;;5.00;4.67;;;;;20.47;53.94;-19754.00;4971511;28;45513;-74
2022/09/29 09:52:02;;;;;;;;;5.00;5.00;;;;;21.61;52.44;-19783.72;4977976;28;45383;-72
2022/09/29 09:54:43;;;;;;;;;5.67;5.67;;;;;22.08;50.95;-19795.97;4994395;28;45604;-72
2022/09/29 09:57:23;;;;;;;;;27.33;22.67;;;;;21.81;54.20;-19788.78;4992796;28;45516;-73
2022/09/29 09:59:54;;;;;;;;;7.00;7.00;;;;;21.62;51.67;-19784.00;4987028;28;45342;-71
2022/09/29 10:02:21;;;;;;;;;7.00;6.67;;;;;21.33;50.75;-19776.41;4979134;28;45686;-71
2022/09/29 10:04:50;;;;;;;;;7.00;7.00;;;;;21.04;51.39;-19768.81;4982241;28;45641;-72
2022/09/29 10:07:21;;;;;;;;;5.00;5.00;;;;;21.10;51.76;-19770.28;4982387;28;45489;-72
2022/09/29 10:09:47;;;;;;;;;4.67;4.00;;;;;21.38;51.35;-19777.59;4980439;28;45740;-71
2022/09/29 10:12:18;;;;;;;;;4.00;3.00;;;;;22.10;50.38;-19796.50;4989847;28;45607;-72
2022/09/29 10:15:04;;;;;;;;;4.00;4.00;;;;;23.03;49.80;-19820.44;4986080;28;45704;-72
2022/09/29 10:17:41;;;;;;;;;4.00;4.00;;;;;23.93;46.17;-19843.94;4988892;28;45380;-73
2022/09/29 10:20:08;;;;;;;;;2.67;2.00;;;;;24.59;44.36;-19861.03;4989801;28;45286;-72
2022/09/29 10:22:34;;;;;;;;;3.67;2.00;;;;;25.41;42.93;-19882.09;4993173;28;45447;-72
2022/09/29 10:25:15;;;;;;;;;3.33;1.00;;;;;26.06;41.91;-19899.03;4988950;28;45492;-72
2022/09/29 10:27:44;;;;;;;;;1.75;1.75;;;;;26.32;40.62;-19905.78;4986630;28;45421;-75
2022/09/29 10:30:23;;;;;;;;;2.00;2.00;;;;;26.79;40.24;-19917.69;4988144;28;45452;-75
2022/09/29 10:32:56;;;;;;;;;2.50;2.00;;;;;26.86;39.46;-19919.66;4981909;28;45430;-76
2022/09/29 10:35:34;;;;;;;;;3.00;3.00;;;;;26.72;39.52;-19915.97;4982986;28;45953;-74
2022/09/29 10:38:16;;;;;;;;;5.50;3.00;;;;;26.75;39.90;-19916.75;4987655;28;45436;-75
2022/09/29 10:41:03;;;;;;;;;3.00;3.00;;;;;26.84;39.58;-19919.00;4990006;28;45593;-75
2022/09/29 10:43:41;;;;;;;;;4.00;4.00;;;;;26.95;40.01;-19922.06;4970686;28;45437;-73
2022/09/29 10:46:26;;;;;;;;;3.00;3.00;;;;;26.87;40.24;-19919.94;4990463;28;46363;-73
2022/09/29 10:51:32;;;;;;;;;2.67;2.67;;;;;25.93;39.54;-19895.47;5008610;27;45535;-73
2022/09/29 10:54:07;;;;;;;;;3.00;3.00;;;;;25.23;40.43;-19877.47;4997035;27;45507;-73
2022/09/29 10:56:33;;;;;;;;;4.00;2.33;;;;;24.79;40.64;-19864.22;5011918;27;45507;-74
2022/09/29 10:59:00;;;;;;;;;1.50;1.50;;;;;24.25;40.67;-19512.03;5023496;27;45500;-75
2022/09/29 11:01:28;;;;;;;;;1.00;1.00;;;;;23.83;41.24;-19501.38;4981782;28;46196;-77
2022/09/29 11:04:02;;;;;;;;;3.00;3.00;;;;;23.45;42.20;-19829.47;4988098;28;45443;-76
2022/09/29 11:06:31;;;;;;;;;12.67;8.67;;;;;23.00;44.66;-19819.63;4997178;27;45336;-75
2022/09/29 11:09:01;;;;;;;;;8.00;8.00;;;;;22.64;45.72;-19810.47;4989682;27;45464;-75
2022/09/29 11:11:46;;;;;;;;;8.33;8.33;;;;;22.24;46.59;-19799.94;4989027;27;47781;-74
2022/09/29 11:14:38;;;;;;;;;7.33;7.33;;;;;21.84;47.73;-19789.56;4975911;28;45511;-74
2022/09/29 11:17:30;;;;;;;;;9.33;7.33;;;;;21.41;48.68;-19778.53;4988160;27;45413;-75
2022/09/29 11:20:02;;;;;;;;;8.00;7.00;;;;;21.16;49.28;-19772.00;4993591;27;45566;-75
2022/09/29 11:22:57;;;;;;;;;7.00;7.00;;;;;20.88;54.91;-19764.69;4988451;28;45975;-75
2022/09/29 11:25:37;;;;;;;;;6.67;6.67;;;;;20.54;57.29;-19755.75;4991298;27;45643;-75
2022/09/29 11:28:30;;;;;;;;;8.00;8.00;;;;;20.15;59.13;-19745.75;4988365;28;45519;-79
2022/09/29 11:31:16;;;;;;;;;10.33;8.67;;;;;19.77;60.56;-19735.88;4985785;28;45575;-75
2022/09/29 11:33:54;;;;;;;;;9.67;7.00;;;;;19.51;60.59;-19729.06;4990486;27;45348;-75
2022/09/29 11:36:25;;;;;;;;;6.67;6.67;;;;;19.23;60.72;-19721.59;4993408;27;45494;-76
2022/09/29 11:39:01;;;;;;;;;7.00;7.00;;;;;19.04;62.45;-17909.22;4988778;28;45452;-82
2022/09/29 11:41:44;;;;;;;;;7.33;7.33;;;;;18.90;62.93;-6205.28;4989589;27;45491;-76
2022/09/29 11:44:49;;;;;;;;;9.67;7.00;;;;;18.70;64.72;26900.44;4992438;27;45348;-77
2022/09/29 11:47:46;;;;;;;;;9.67;7.67;;;;;18.47;65.84;30700.97;5005631;27;45494;-77
2022/09/29 11:50:52;;;;;;;;;7.00;7.00;;;;;18.04;67.96;44576.00;4997570;28;45318;-76
2022/09/29 11:53:40;;;;;;;;;7.67;5.33;;;;;17.57;68.00;50007.06;5001951;28;45477;-77
2022/09/29 11:56:25;;;;;;;;;7.33;6.00;;;;;17.12;69.15;58858.22;4995839;28;46260;-74